createdAt,value
2019-03-21T00:00:43.372Z,24.50
2019-03-21T00:03:14.126Z,22.70
2019-03-21T00:05:44.911Z,24.63
2019-03-21T00:08:15.035Z,24.67
2019-03-21T00:11:33.850Z,24.63
2019-03-21T00:14:12.194Z,26.37
2019-03-21T00:16:43.005Z,24.27
2019-03-21T00:19:13.715Z,26.27
2019-03-21T00:21:44.475Z,25.77
2019-03-21T00:24:15.217Z,24.97
2019-03-21T00:26:46.006Z,29.23
2019-03-21T00:29:17.396Z,28.47
2019-03-21T00:31:48.234Z,28.03
2019-03-21T00:34:19.215Z,25.13
2019-03-21T00:36:49.910Z,28.97
2019-03-21T00:39:20.752Z,27.60
2019-03-21T00:41:51.448Z,31.73
2019-03-21T00:44:22.278Z,28.80
2019-03-21T00:46:53.329Z,28.83
2019-03-21T00:49:26.957Z,27.80
2019-03-21T00:51:57.815Z,30.17
2019-03-21T00:54:28.787Z,29.93
2019-03-21T00:56:59.601Z,30.17
2019-03-21T00:59:30.335Z,30.67
2019-03-21T01:02:01.087Z,28.50
2019-03-21T01:04:34.639Z,29.03
2019-03-21T01:07:06.400Z,28.47
2019-03-21T01:09:37.645Z,30.47
2019-03-21T01:12:09.738Z,31.07
2019-03-21T01:14:40.756Z,28.63
2019-03-21T01:17:11.587Z,28.83
2019-03-21T01:19:42.398Z,34.23
2019-03-21T01:22:13.181Z,32.27
2019-03-21T01:24:43.894Z,34.67
2019-03-21T01:27:14.600Z,31.03
2019-03-21T01:29:45.464Z,29.10
2019-03-21T01:32:16.216Z,31.40
2019-03-21T01:34:46.917Z,34.80
2019-03-21T01:37:17.664Z,31.83
2019-03-21T01:39:48.511Z,35.13
2019-03-21T01:42:19.272Z,34.83
2019-03-21T01:44:49.989Z,33.13
2019-03-21T01:47:20.700Z,31.77
2019-03-21T01:49:52.193Z,33.77
2019-03-21T01:52:23.696Z,33.47
2019-03-21T01:54:55.194Z,35.03
2019-03-21T01:57:27.036Z,32.63
2019-03-21T01:59:58.177Z,32.40
2019-03-21T02:02:28.903Z,34.53
2019-03-21T02:04:59.827Z,33.40
2019-03-21T02:07:30.528Z,30.43
2019-03-21T02:10:01.673Z,33.07
2019-03-21T02:12:32.640Z,32.17
2019-03-21T02:15:03.405Z,33.10
2019-03-21T02:17:34.554Z,32.07
2019-03-21T02:20:05.684Z,29.27
2019-03-21T02:22:36.451Z,31.13
2019-03-21T02:25:11.456Z,34.00
2019-03-21T02:27:42.172Z,30.60
2019-03-21T02:30:17.167Z,33.67
2019-03-21T02:32:48.752Z,32.30
2019-03-21T02:35:19.465Z,35.03
2019-03-21T02:37:50.186Z,31.77
2019-03-21T02:40:22.445Z,31.00
2019-03-21T02:42:53.401Z,30.43
2019-03-21T02:45:24.346Z,32.33
2019-03-21T02:47:55.054Z,31.90
2019-03-21T02:50:29.858Z,27.63
2019-03-21T02:53:00.756Z,32.53
2019-03-21T02:55:31.481Z,34.67
2019-03-21T02:58:02.543Z,28.07
2019-03-21T03:00:34.131Z,31.47
2019-03-21T03:03:04.993Z,33.50
2019-03-21T03:05:36.208Z,34.50
2019-03-21T03:08:07.260Z,34.87
2019-03-21T03:10:47.953Z,34.60
2019-03-21T03:13:18.644Z,31.67
2019-03-21T03:15:49.480Z,32.93
2019-03-21T03:18:20.474Z,33.97
2019-03-21T03:20:51.348Z,35.60
2019-03-21T03:23:22.152Z,34.93
2019-03-21T03:25:52.854Z,34.87
2019-03-21T03:28:25.705Z,32.87
2019-03-21T03:30:57.850Z,34.43
2019-03-21T03:33:28.600Z,34.43
2019-03-21T03:35:59.519Z,36.27
2019-03-21T03:38:30.668Z,35.40
2019-03-21T03:41:02.584Z,32.60
2019-03-21T03:43:33.737Z,33.67
2019-03-21T03:46:05.423Z,33.60
2019-03-21T03:48:36.129Z,34.90
2019-03-21T03:51:06.895Z,32.97
2019-03-21T03:53:37.605Z,32.10
2019-03-21T03:56:09.300Z,33.83
2019-03-21T03:58:42.312Z,29.17
2019-03-21T04:01:13.815Z,32.83
2019-03-21T04:03:45.294Z,30.83
2019-03-21T04:06:16.066Z,33.77
2019-03-21T04:08:46.872Z,33.33
2019-03-21T04:11:18.407Z,28.07
2019-03-21T04:13:49.823Z,31.17
2019-03-21T04:16:20.984Z,29.20
2019-03-21T04:18:52.196Z,31.10
2019-03-21T04:21:23.403Z,32.20
2019-03-21T04:23:54.139Z,29.33
2019-03-21T04:26:28.708Z,31.20
2019-03-21T04:29:00.046Z,30.77
2019-03-21T04:31:30.837Z,31.13
2019-03-21T04:34:03.562Z,30.30
2019-03-21T04:36:34.271Z,32.17
2019-03-21T04:39:07.400Z,31.47
2019-03-21T04:41:39.005Z,32.77
2019-03-21T04:44:09.719Z,28.87
2019-03-21T04:46:40.500Z,28.47
2019-03-21T04:49:11.614Z,31.23
2019-03-21T04:51:42.586Z,30.13
2019-03-21T04:54:13.584Z,29.70
2019-03-21T04:56:44.358Z,32.63
2019-03-21T04:59:15.323Z,31.17
2019-03-21T05:01:46.076Z,31.20
2019-03-21T05:04:16.792Z,32.60
2019-03-21T05:06:48.013Z,31.07
2019-03-21T05:09:20.743Z,31.10
2019-03-21T05:11:51.548Z,32.83
2019-03-21T05:14:22.562Z,31.73
2019-03-21T05:16:53.346Z,33.80
2019-03-21T05:19:24.070Z,31.83
2019-03-21T05:21:54.927Z,30.80
2019-03-21T05:24:26.190Z,32.60
2019-03-21T05:26:56.910Z,33.63
2019-03-21T05:29:27.890Z,32.27
2019-03-21T05:31:58.625Z,31.67
2019-03-21T05:34:29.570Z,32.30
2019-03-21T05:37:00.843Z,31.13
2019-03-21T05:39:31.577Z,34.00
2019-03-21T05:42:04.389Z,29.53
2019-03-21T05:44:41.543Z,31.63
2019-03-21T05:47:12.254Z,32.53
2019-03-21T05:49:43.072Z,30.93
2019-03-21T05:52:14.762Z,33.17
2019-03-21T05:54:45.569Z,31.70
2019-03-21T05:57:16.240Z,34.00
2019-03-21T05:59:46.953Z,31.40
2019-03-21T06:02:17.759Z,32.37
2019-03-21T06:04:48.493Z,32.97
2019-03-21T06:07:37.968Z,34.93
2019-03-21T06:10:11.978Z,30.70
2019-03-21T06:12:46.106Z,34.00
2019-03-21T06:15:24.265Z,31.93
2019-03-21T06:18:44.272Z,33.60
2019-03-21T06:21:47.693Z,30.53
2019-03-21T06:24:58.212Z,31.73
2019-03-21T06:27:32.024Z,31.20
2019-03-21T06:30:03.416Z,30.20
2019-03-21T06:32:36.924Z,28.67
2019-03-21T06:35:21.385Z,29.47
2019-03-21T06:37:53.139Z,31.50
2019-03-21T06:40:23.934Z,31.93
2019-03-21T06:42:54.854Z,29.73
2019-03-21T06:45:25.684Z,31.50
2019-03-21T06:47:56.575Z,31.10
2019-03-21T06:50:27.893Z,32.73
2019-03-21T06:52:58.623Z,31.73
2019-03-21T06:55:29.361Z,32.10
2019-03-21T06:58:00.066Z,32.13
2019-03-21T07:00:30.844Z,30.10
2019-03-21T07:03:04.607Z,30.70
2019-03-21T07:05:35.318Z,31.10
2019-03-21T07:08:06.130Z,34.03
2019-03-21T07:10:37.510Z,31.90
2019-03-21T07:13:08.457Z,33.37
2019-03-21T07:15:39.197Z,32.03
2019-03-21T07:18:10.274Z,32.10
2019-03-21T07:20:41.002Z,32.00
2019-03-21T07:23:11.724Z,31.97
2019-03-21T07:25:42.478Z,31.17
2019-03-21T07:28:13.420Z,33.30
2019-03-21T07:30:44.182Z,30.40
2019-03-21T07:33:14.873Z,31.43
2019-03-21T07:35:45.603Z,33.07
2019-03-21T07:38:16.509Z,32.57
2019-03-21T07:40:47.311Z,29.53
2019-03-21T07:43:18.252Z,34.03
2019-03-21T07:45:49.276Z,35.13
2019-03-21T07:48:19.965Z,33.17
2019-03-21T07:50:50.671Z,29.57
2019-03-21T07:53:22.209Z,34.87
2019-03-21T07:55:53.319Z,34.70
2019-03-21T07:58:24.223Z,38.50
2019-03-21T08:00:54.942Z,35.83
2019-03-21T08:03:26.117Z,38.00
2019-03-21T08:05:56.846Z,39.73
2019-03-21T08:08:27.644Z,33.80
2019-03-21T08:10:58.320Z,37.73
2019-03-21T08:13:29.125Z,37.67
2019-03-21T08:16:00.306Z,33.10
2019-03-21T08:18:31.226Z,35.60
2019-03-21T08:21:02.591Z,32.60
2019-03-21T08:23:33.447Z,32.67
2019-03-21T08:26:04.157Z,33.17
2019-03-21T08:28:35.209Z,34.97
2019-03-21T08:31:20.182Z,34.80
2019-03-21T08:33:51.068Z,33.80
2019-03-21T08:36:21.902Z,30.70
2019-03-21T08:38:53.159Z,34.53
2019-03-21T08:41:25.593Z,33.57
2019-03-21T08:43:56.302Z,36.00
2019-03-21T08:46:27.265Z,36.30
2019-03-21T08:48:58.185Z,32.33
2019-03-21T08:51:28.981Z,32.33
2019-03-21T08:53:59.846Z,30.40
2019-03-21T08:56:30.676Z,32.63
2019-03-21T08:59:01.708Z,28.03
2019-03-21T09:01:32.563Z,30.03
2019-03-21T09:04:03.354Z,30.30
2019-03-21T09:06:34.182Z,27.07
2019-03-21T09:09:07.899Z,30.77
2019-03-21T09:11:40.592Z,29.70
2019-03-21T09:14:14.613Z,27.27
2019-03-21T09:16:45.375Z,31.33
2019-03-21T09:19:16.380Z,26.40
2019-03-21T09:21:47.625Z,30.80
2019-03-21T09:24:18.337Z,28.87
2019-03-21T09:26:49.289Z,27.70
2019-03-21T09:29:20.214Z,28.57
2019-03-21T09:31:51.025Z,26.27
2019-03-21T09:34:22.057Z,26.40
2019-03-21T09:36:52.948Z,25.97
2019-03-21T09:39:24.891Z,23.47
2019-03-21T09:41:55.763Z,26.00
2019-03-21T09:44:24.861Z,27.17
2019-03-21T09:46:56.217Z,25.77
2019-03-21T09:49:27.147Z,24.90
2019-03-21T09:51:57.923Z,27.67
2019-03-21T09:54:28.642Z,22.93
2019-03-21T09:56:59.446Z,27.13
2019-03-21T09:59:30.184Z,24.83
2019-03-21T10:02:01.130Z,24.67
2019-03-21T10:04:31.831Z,26.60
2019-03-21T10:07:02.639Z,25.20
2019-03-21T10:09:33.356Z,29.03
2019-03-21T10:12:05.882Z,28.30
2019-03-21T10:14:37.153Z,26.57
2019-03-21T10:17:08.251Z,24.77
2019-03-21T10:19:39.195Z,25.60
2019-03-21T10:22:10.266Z,26.27
2019-03-21T10:24:41.297Z,27.30
2019-03-21T10:27:12.530Z,25.70
2019-03-21T10:29:43.503Z,26.93
2019-03-21T10:32:14.870Z,26.60
2019-03-21T10:34:47.299Z,25.50
2019-03-21T10:37:18.386Z,24.17
2019-03-21T10:39:49.570Z,25.80
2019-03-21T10:42:20.660Z,28.10
2019-03-21T10:44:51.788Z,23.73
2019-03-21T10:47:23.375Z,25.63
2019-03-21T10:49:54.367Z,25.30
2019-03-21T10:52:25.538Z,23.20
2019-03-21T10:54:56.754Z,23.13
2019-03-21T10:57:28.467Z,24.67
2019-03-21T11:00:01.695Z,23.77
2019-03-21T11:02:32.026Z,26.13
2019-03-21T11:05:02.966Z,24.60
2019-03-21T11:07:33.738Z,23.33
2019-03-21T11:10:04.885Z,25.00
2019-03-21T11:12:35.798Z,26.03
2019-03-21T11:15:07.128Z,24.33
2019-03-21T11:17:37.908Z,22.67
2019-03-21T11:20:08.879Z,25.63
2019-03-21T11:22:39.584Z,24.37
2019-03-21T11:25:10.582Z,24.50
2019-03-21T11:27:41.633Z,25.13
2019-03-21T11:30:16.501Z,23.37
2019-03-21T11:32:47.174Z,23.43
2019-03-21T11:35:17.922Z,25.27
2019-03-21T11:37:48.657Z,23.80
2019-03-21T11:40:19.417Z,24.63
2019-03-21T11:42:50.158Z,23.97
2019-03-21T11:45:21.082Z,23.27
2019-03-21T11:47:53.385Z,22.23
2019-03-21T11:50:24.091Z,20.50
2019-03-21T11:52:54.816Z,20.87
2019-03-21T11:55:25.586Z,22.33
2019-03-21T11:57:56.338Z,22.00
2019-03-21T12:00:27.034Z,18.77
2019-03-21T12:02:58.227Z,18.67
2019-03-21T12:05:29.033Z,18.97
2019-03-21T12:07:59.783Z,19.27
2019-03-21T12:10:30.523Z,19.57
2019-03-21T12:13:01.288Z,21.23
2019-03-21T12:15:32.128Z,22.73
2019-03-21T12:18:02.914Z,21.40
2019-03-21T12:20:37.621Z,21.47
2019-03-21T12:23:08.574Z,21.40
2019-03-21T12:25:45.920Z,23.80
2019-03-21T12:28:16.927Z,23.97
2019-03-21T12:30:48.186Z,24.70
2019-03-21T12:33:18.934Z,24.60
2019-03-21T12:35:49.778Z,26.70
2019-03-21T12:38:20.783Z,28.23
2019-03-21T12:40:51.556Z,29.20
2019-03-21T12:43:22.790Z,31.43
2019-03-21T12:45:53.562Z,29.37
2019-03-21T12:48:24.410Z,31.20
2019-03-21T12:50:55.294Z,29.03
2019-03-21T12:53:26.038Z,30.43
2019-03-21T12:55:56.753Z,31.07
2019-03-21T12:58:27.485Z,27.40
2019-03-21T13:00:58.245Z,29.30
2019-03-21T13:03:29.075Z,30.57
2019-03-21T13:05:59.812Z,31.33
2019-03-21T13:08:34.026Z,23.07
2019-03-21T13:11:03.178Z,30.50
2019-03-21T13:13:33.908Z,28.00
2019-03-21T13:16:04.846Z,27.03
2019-03-21T13:18:35.591Z,27.80
2019-03-21T13:21:06.451Z,28.40
2019-03-21T13:23:37.214Z,29.63
2019-03-21T13:26:07.951Z,32.77
2019-03-21T13:28:38.676Z,31.60
2019-03-21T13:31:09.412Z,30.30
2019-03-21T13:33:40.176Z,30.27
2019-03-21T13:36:10.891Z,29.13
2019-03-21T13:38:41.631Z,29.03
2019-03-21T13:41:12.350Z,32.87
2019-03-21T13:43:43.315Z,31.83
2019-03-21T13:46:14.039Z,29.83
2019-03-21T13:48:44.769Z,32.33
2019-03-21T13:51:15.481Z,30.73
2019-03-21T13:53:46.670Z,30.17
2019-03-21T13:56:19.695Z,31.00
2019-03-21T13:58:50.897Z,30.53
2019-03-21T14:01:21.609Z,28.53
2019-03-21T14:03:52.394Z,29.27
2019-03-21T14:06:23.078Z,28.63
2019-03-21T14:08:53.813Z,30.83
2019-03-21T14:11:24.543Z,30.10
2019-03-21T14:13:55.534Z,29.60
2019-03-21T14:16:28.720Z,30.73
2019-03-21T14:18:59.423Z,28.47
2019-03-21T14:21:30.111Z,30.13
2019-03-21T14:24:00.929Z,29.40
2019-03-21T14:26:31.666Z,29.50
2019-03-21T14:29:12.175Z,30.63
2019-03-21T14:31:34.954Z,31.53
2019-03-21T14:34:05.677Z,27.53
2019-03-21T14:36:36.528Z,26.27
2019-03-21T14:39:08.643Z,32.47
2019-03-21T14:41:39.907Z,31.30
2019-03-21T14:44:10.653Z,32.00
2019-03-21T14:46:41.420Z,31.27
2019-03-21T14:49:12.278Z,29.37
2019-03-21T14:51:43.013Z,26.77
2019-03-21T14:54:13.760Z,31.30
2019-03-21T14:56:44.578Z,29.83
2019-03-21T14:59:15.554Z,30.63
2019-03-21T15:01:46.309Z,29.33
2019-03-21T15:04:17.241Z,29.20
2019-03-21T15:06:47.996Z,31.77
2019-03-21T15:09:18.733Z,32.00
2019-03-21T15:11:49.502Z,31.53
2019-03-21T15:14:20.359Z,26.17
2019-03-21T15:16:51.079Z,26.20
2019-03-21T15:19:21.908Z,27.33
2019-03-21T15:21:52.677Z,27.40
2019-03-21T15:24:23.646Z,26.67
2019-03-21T15:26:54.355Z,25.13
2019-03-21T15:29:25.230Z,25.57
2019-03-21T15:31:56.119Z,25.70
2019-03-21T15:34:27.622Z,26.77
2019-03-21T15:36:58.440Z,27.97
2019-03-21T15:39:29.209Z,25.10
2019-03-21T15:41:59.952Z,27.43
2019-03-21T15:44:30.939Z,42.97
2019-03-21T15:47:01.759Z,34.17
2019-03-21T15:49:32.868Z,27.13
2019-03-21T15:52:03.608Z,26.97
2019-03-21T15:54:34.580Z,28.30
2019-03-21T15:57:05.758Z,27.60
2019-03-21T15:59:36.523Z,28.33
2019-03-21T16:02:07.302Z,27.10
2019-03-21T16:04:38.038Z,30.17
2019-03-21T16:07:08.952Z,27.37
2019-03-21T16:09:39.724Z,24.90
2019-03-21T16:12:11.185Z,31.63
2019-03-21T16:14:42.240Z,28.03
2019-03-21T16:17:13.041Z,27.23
2019-03-21T16:19:43.758Z,29.03
2019-03-21T16:22:18.098Z,27.20
2019-03-21T16:24:51.957Z,28.90
2019-03-21T16:27:24.890Z,28.77
2019-03-21T16:29:55.616Z,27.87
2019-03-21T16:32:26.392Z,29.70
2019-03-21T16:34:57.152Z,26.93
2019-03-21T16:37:27.902Z,28.93
2019-03-21T16:39:58.640Z,27.20
2019-03-21T16:42:31.802Z,30.00
2019-03-21T16:45:02.523Z,29.07
2019-03-21T16:47:33.336Z,28.80
2019-03-21T16:50:04.596Z,28.33
2019-03-21T16:52:36.192Z,30.37
2019-03-21T16:55:08.812Z,27.60
2019-03-21T16:57:39.954Z,29.97
2019-03-21T17:00:11.260Z,27.87
2019-03-21T17:02:42.005Z,31.30
2019-03-21T17:05:12.917Z,27.90
2019-03-21T17:07:43.853Z,27.87
2019-03-21T17:10:16.523Z,30.00
2019-03-21T17:12:47.412Z,26.30
2019-03-21T17:15:18.291Z,25.43
2019-03-21T17:17:49.043Z,27.00
2019-03-21T17:20:20.311Z,28.17
2019-03-21T17:22:51.232Z,27.77
2019-03-21T17:25:21.943Z,29.90
2019-03-21T17:27:54.784Z,28.80
2019-03-21T17:30:25.508Z,28.83
2019-03-21T17:32:56.562Z,28.17
2019-03-21T17:35:27.695Z,26.57
2019-03-21T17:37:59.265Z,30.17
2019-03-21T17:40:32.263Z,26.50
2019-03-21T17:43:03.201Z,28.13
2019-03-21T17:45:33.963Z,25.50
2019-03-21T17:48:04.871Z,25.60
2019-03-21T17:50:35.627Z,28.70
2019-03-21T17:53:06.506Z,26.57
2019-03-21T17:55:37.255Z,27.80
2019-03-21T17:58:08.009Z,28.87
2019-03-21T18:00:39.070Z,27.83
2019-03-21T18:03:10.174Z,31.27
2019-03-21T18:05:40.956Z,29.13
2019-03-21T18:08:11.882Z,30.63
2019-03-21T18:10:42.704Z,30.50
2019-03-21T18:13:13.943Z,45.90
2019-03-21T18:15:45.237Z,30.47
2019-03-21T18:18:16.020Z,31.33
2019-03-21T18:20:46.998Z,31.87
2019-03-21T18:23:18.207Z,31.77
2019-03-21T18:25:48.941Z,30.03
2019-03-21T18:28:19.717Z,28.67
2019-03-21T18:30:50.750Z,30.03
2019-03-21T18:33:21.528Z,30.23
2019-03-21T18:35:52.374Z,32.23
2019-03-21T18:38:23.267Z,32.53
2019-03-21T18:40:54.142Z,29.33
2019-03-21T18:43:24.935Z,31.20
2019-03-21T18:45:55.689Z,31.87
2019-03-21T18:48:26.474Z,33.33
2019-03-21T18:50:57.274Z,31.17
2019-03-21T18:53:28.483Z,31.60
2019-03-21T18:55:59.216Z,32.23
2019-03-21T18:58:30.082Z,30.30
2019-03-21T19:01:00.905Z,36.97
2019-03-21T19:03:31.602Z,32.00
2019-03-21T19:06:02.767Z,45.57
2019-03-21T19:08:34.769Z,37.87
2019-03-21T19:11:05.864Z,34.80
2019-03-21T19:13:36.560Z,35.60
2019-03-21T19:16:07.470Z,35.10
2019-03-21T19:18:38.242Z,34.60
2019-03-21T19:21:08.976Z,33.33
2019-03-21T19:23:40.033Z,33.60
2019-03-21T19:26:10.782Z,90.67
2019-03-21T19:28:41.563Z,55.70
2019-03-21T19:31:12.314Z,65.33
2019-03-21T19:33:43.145Z,45.23
2019-03-21T19:36:13.926Z,42.03
2019-03-21T19:38:45.278Z,35.77
2019-03-21T19:41:16.067Z,47.47
2019-03-21T19:43:47.003Z,111.03
2019-03-21T19:46:17.754Z,52.33
2019-03-21T19:48:50.519Z,37.97
2019-03-21T19:51:21.183Z,110.87
2019-03-21T19:53:52.187Z,63.17
2019-03-21T19:56:23.075Z,62.27
2019-03-21T19:58:54.082Z,49.20
2019-03-21T20:01:25.100Z,50.10
2019-03-21T20:03:55.872Z,36.73
2019-03-21T20:06:29.265Z,37.43
2019-03-21T20:09:00.124Z,38.23
2019-03-21T20:11:31.074Z,57.93
2019-03-21T20:14:03.986Z,39.73
2019-03-21T20:16:34.537Z,36.20
2019-03-21T20:19:05.383Z,49.40
2019-03-21T20:21:47.298Z,43.53
2019-03-21T20:24:09.095Z,49.63
2019-03-21T20:26:40.086Z,38.83
2019-03-21T20:29:11.068Z,49.30
2019-03-21T20:31:41.820Z,76.90
2019-03-21T20:34:12.986Z,42.70
2019-03-21T20:36:46.626Z,38.43
2019-03-21T20:39:17.347Z,47.63
2019-03-21T20:41:48.431Z,61.93
2019-03-21T20:44:19.479Z,42.17
2019-03-21T20:46:50.312Z,109.73
2019-03-21T20:49:21.134Z,65.87
2019-03-21T20:51:51.965Z,42.03
2019-03-21T20:54:22.741Z,36.53
2019-03-21T20:56:53.619Z,37.80
2019-03-21T20:59:24.360Z,35.83
2019-03-21T21:02:02.757Z,36.17
2019-03-21T21:04:27.862Z,35.13
2019-03-21T21:06:58.833Z,37.43
2019-03-21T21:09:29.526Z,36.63
2019-03-21T21:12:00.689Z,36.97
2019-03-21T21:14:31.649Z,39.40
2019-03-21T21:17:02.505Z,36.63
2019-03-21T21:19:33.306Z,37.37
2019-03-21T21:22:04.198Z,39.43
2019-03-21T21:24:35.029Z,39.13
2019-03-21T21:27:05.915Z,37.47
2019-03-21T21:29:36.601Z,39.10
2019-03-21T21:32:07.584Z,39.93
2019-03-21T21:34:38.397Z,41.93
2019-03-21T21:37:09.132Z,42.27
2019-03-21T21:39:39.984Z,41.97
2019-03-21T21:42:10.786Z,49.47
2019-03-21T21:44:41.623Z,48.93
2019-03-21T21:47:12.469Z,38.43
2019-03-21T21:49:43.260Z,44.23
2019-03-21T21:52:13.988Z,40.57
2019-03-21T21:54:44.807Z,39.60
2019-03-21T21:57:15.671Z,39.83
2019-03-21T21:59:46.481Z,43.60
2019-03-21T22:02:17.328Z,40.60
2019-03-21T22:04:48.333Z,41.60
2019-03-21T22:07:19.518Z,41.60
2019-03-21T22:09:50.361Z,40.77
2019-03-21T22:12:21.246Z,43.13
2019-03-21T22:14:51.966Z,42.03
2019-03-21T22:17:22.823Z,39.33
2019-03-21T22:19:53.632Z,39.67
2019-03-21T22:22:24.426Z,41.63
2019-03-21T22:24:55.187Z,39.37
2019-03-21T22:27:25.917Z,40.63
2019-03-21T22:29:56.661Z,46.00
2019-03-21T22:32:27.392Z,44.07
2019-03-21T22:34:58.348Z,46.60
2019-03-21T22:37:29.117Z,45.53
2019-03-21T22:39:59.870Z,64.10
2019-03-21T22:42:31.310Z,66.10
2019-03-21T22:45:02.077Z,57.03
2019-03-21T22:47:32.856Z,44.40
2019-03-21T22:50:04.058Z,44.50
2019-03-21T22:52:35.072Z,42.30
2019-03-21T22:55:06.712Z,42.23
2019-03-21T22:57:38.118Z,41.60
2019-03-21T23:00:12.005Z,45.27
2019-03-21T23:02:42.868Z,45.63
2019-03-21T23:05:14.373Z,45.20
2019-03-21T23:07:45.684Z,51.83
2019-03-21T23:10:17.170Z,55.43
2019-03-21T23:12:48.419Z,44.70
2019-03-21T23:15:19.420Z,46.03
2019-03-21T23:17:50.463Z,42.33
2019-03-21T23:20:21.304Z,58.70
2019-03-21T23:22:52.516Z,51.83
2019-03-21T23:25:23.368Z,47.63
2019-03-21T23:27:54.275Z,43.77
2019-03-21T23:30:24.996Z,52.00
2019-03-21T23:32:55.831Z,46.03
2019-03-21T23:35:27.165Z,44.63
2019-03-21T23:37:58.059Z,49.13
2019-03-21T23:40:28.928Z,41.50
2019-03-21T23:42:59.683Z,40.73
2019-03-21T23:45:30.512Z,43.10
2019-03-21T23:48:02.826Z,41.60
2019-03-21T23:50:33.500Z,51.90
2019-03-21T23:53:05.217Z,44.00
2019-03-21T23:55:36.214Z,48.13
2019-03-21T23:58:08.214Z,51.03
